createdAt,value
2018-03-20T00:02:06.369Z,168.20
2018-03-20T00:04:32.971Z,193.10
2018-03-20T00:06:59.573Z,209.23
2018-03-20T00:09:26.187Z,164.88
2018-03-20T00:11:52.804Z,154.82
2018-03-20T00:14:19.426Z,181.05
2018-03-20T00:16:46.043Z,169.15
2018-03-20T00:19:12.637Z,194.15
2018-03-20T00:21:39.250Z,176.87
2018-03-20T00:24:05.869Z,146.10
2018-03-20T00:26:32.472Z,195.23
2018-03-20T00:28:59.089Z,144.50
2018-03-20T00:31:25.701Z,168.05
2018-03-20T00:33:52.321Z,230.98
2018-03-20T00:36:18.937Z,213.15
2018-03-20T00:38:45.538Z,205.30
2018-03-20T00:41:12.168Z,202.48
2018-03-20T00:43:38.784Z,125.15
2018-03-20T00:46:05.397Z,155.75
2018-03-20T00:48:32.017Z,147.60
2018-03-20T00:50:58.635Z,163.82
2018-03-20T00:53:25.249Z,152.00
2018-03-20T00:55:51.858Z,129.82
2018-03-20T00:58:18.454Z,138.30
2018-03-20T01:00:45.072Z,148.43
2018-03-20T01:03:11.673Z,130.07
2018-03-20T01:05:38.278Z,111.35
2018-03-20T01:08:04.897Z,166.50
2018-03-20T01:10:31.500Z,208.65
2018-03-20T01:12:58.120Z,198.18
2018-03-20T01:15:24.729Z,161.88
2018-03-20T01:17:51.330Z,135.75
2018-03-20T01:20:17.944Z,106.40
2018-03-20T01:22:44.550Z,139.43
2018-03-20T01:25:11.155Z,117.80
2018-03-20T01:27:37.787Z,119.60
2018-03-20T01:30:04.403Z,138.40
2018-03-20T01:32:31.020Z,167.52
2018-03-20T01:34:57.640Z,150.48
2018-03-20T01:37:24.244Z,134.15
2018-03-20T01:39:50.863Z,135.73
2018-03-20T01:42:17.485Z,129.12
2018-03-20T01:44:44.097Z,134.23
2018-03-20T01:47:10.708Z,99.25
2018-03-20T01:49:37.463Z,170.32
2018-03-20T01:52:04.070Z,101.70
2018-03-20T01:54:30.661Z,88.40
2018-03-20T01:56:58.045Z,125.40
2018-03-20T01:59:24.700Z,111.50
2018-03-20T02:01:51.268Z,140.62
2018-03-20T02:04:17.876Z,121.32
2018-03-20T02:06:44.470Z,91.72
2018-03-20T02:09:11.078Z,105.68
2018-03-20T02:11:37.687Z,121.55
2018-03-20T02:14:04.286Z,128.50
2018-03-20T02:16:30.909Z,113.18
2018-03-20T02:18:57.508Z,131.35
2018-03-20T02:21:24.130Z,141.20
2018-03-20T02:23:50.740Z,146.50
2018-03-20T02:26:17.350Z,150.62
2018-03-20T02:28:43.963Z,110.22
2018-03-20T02:31:10.580Z,118.72
2018-03-20T02:33:37.182Z,107.10
2018-03-20T02:36:03.805Z,124.85
2018-03-20T02:38:30.420Z,116.37
2018-03-20T02:40:57.030Z,105.25
2018-03-20T02:43:23.640Z,97.78
2018-03-20T02:45:50.261Z,123.15
2018-03-20T02:48:16.940Z,133.50
2018-03-20T02:50:43.548Z,78.87
2018-03-20T02:53:10.158Z,78.35
2018-03-20T02:55:36.818Z,99.72
2018-03-20T02:58:03.423Z,102.60
2018-03-20T03:00:30.044Z,83.60
2018-03-20T03:02:56.730Z,65.20
2018-03-20T03:05:23.335Z,106.43
2018-03-20T03:07:49.934Z,72.53
2018-03-20T03:10:16.568Z,107.47
2018-03-20T03:12:43.179Z,93.05
2018-03-20T03:15:09.789Z,78.93
2018-03-20T03:17:36.440Z,97.18
2018-03-20T03:20:03.050Z,110.18
2018-03-20T03:22:29.672Z,85.03
2018-03-20T03:24:56.284Z,86.05
2018-03-20T03:27:22.888Z,79.93
2018-03-20T03:29:49.477Z,69.57
2018-03-20T03:32:16.442Z,64.70
2018-03-20T03:34:43.026Z,108.80
2018-03-20T03:37:09.628Z,81.37
2018-03-20T03:39:36.258Z,77.15
2018-03-20T03:42:02.845Z,78.25
2018-03-20T03:44:29.433Z,85.75
2018-03-20T03:46:56.042Z,109.57
2018-03-20T03:49:22.642Z,89.53
2018-03-20T03:51:49.246Z,72.62
2018-03-20T03:54:15.860Z,86.37
2018-03-20T03:56:42.465Z,126.45
2018-03-20T03:59:09.079Z,97.50
2018-03-20T04:01:35.680Z,125.70
2018-03-20T04:04:02.273Z,81.78
2018-03-20T04:06:28.888Z,96.57
2018-03-20T04:08:55.492Z,81.55
2018-03-20T04:11:22.085Z,69.70
2018-03-20T04:13:48.692Z,71.05
2018-03-20T04:16:15.286Z,82.97
2018-03-20T04:18:41.897Z,78.20
2018-03-20T04:21:08.508Z,93.85
2018-03-20T04:23:35.116Z,100.20
2018-03-20T04:26:01.711Z,95.95
2018-03-20T04:28:28.327Z,117.95
2018-03-20T04:30:54.941Z,86.85
2018-03-20T04:33:21.542Z,123.82
2018-03-20T04:35:48.142Z,110.37
2018-03-20T04:38:14.750Z,112.28
2018-03-20T04:40:41.357Z,104.05
2018-03-20T04:43:07.965Z,99.28
2018-03-20T04:45:34.575Z,101.90
2018-03-20T04:48:01.195Z,119.30
2018-03-20T04:50:27.825Z,104.57
2018-03-20T04:52:54.418Z,98.90
2018-03-20T04:55:21.033Z,118.18
2018-03-20T04:57:47.630Z,130.20
2018-03-20T05:00:14.238Z,129.90
2018-03-20T05:02:40.846Z,122.25
2018-03-20T05:05:07.459Z,111.40
2018-03-20T05:07:34.068Z,107.87
2018-03-20T05:10:00.680Z,114.22
2018-03-20T05:12:27.328Z,111.93
2018-03-20T05:14:53.941Z,114.03
2018-03-20T05:17:20.545Z,93.65
2018-03-20T05:19:52.941Z,96.45
2018-03-20T05:22:25.050Z,90.35
2018-03-20T05:24:51.650Z,90.72
2018-03-20T05:27:18.274Z,107.80
2018-03-20T05:29:44.881Z,123.75
2018-03-20T05:32:11.495Z,116.65
2018-03-20T05:34:38.116Z,116.12
2018-03-20T05:37:04.714Z,99.65
2018-03-20T05:39:31.329Z,112.03
2018-03-20T05:41:57.938Z,125.12
2018-03-20T05:44:24.534Z,82.75
2018-03-20T05:47:07.829Z,96.60
2018-03-20T05:49:50.228Z,84.57
2018-03-20T05:52:16.908Z,125.32
2018-03-20T05:54:43.517Z,105.97
2018-03-20T05:57:10.133Z,143.87
2018-03-20T05:59:36.871Z,136.23
2018-03-20T06:02:03.458Z,117.62
2018-03-20T06:04:30.112Z,101.12
2018-03-20T06:06:56.662Z,99.70
2018-03-20T06:09:23.259Z,89.97
2018-03-20T06:11:49.891Z,74.03
2018-03-20T06:14:16.569Z,78.28
2018-03-20T06:16:43.180Z,78.62
2018-03-20T06:19:09.794Z,88.60
2018-03-20T06:21:36.477Z,79.50
2018-03-20T06:24:03.090Z,61.67
2018-03-20T06:26:29.689Z,65.93
2018-03-20T06:28:56.701Z,59.03
2018-03-20T06:31:23.386Z,86.22
2018-03-20T06:33:50.184Z,44.00
2018-03-20T06:36:16.903Z,36.95
2018-03-20T06:38:43.526Z,50.28
2018-03-20T06:41:10.132Z,27.02
2018-03-20T06:43:36.734Z,28.20
2018-03-20T06:46:03.333Z,23.52
2018-03-20T06:48:29.940Z,17.33
2018-03-20T06:50:57.099Z,44.58
2018-03-20T06:53:23.717Z,22.00
2018-03-20T06:55:50.315Z,29.23
2018-03-20T06:58:16.926Z,41.03
2018-03-20T07:00:43.527Z,15.38
2018-03-20T07:03:10.126Z,10.55
2018-03-20T07:05:36.935Z,7.90
2018-03-20T07:08:03.519Z,5.22
2018-03-20T07:10:30.123Z,6.62
2018-03-20T07:12:56.855Z,10.88
2018-03-20T07:15:23.464Z,12.90
2018-03-20T07:17:50.050Z,9.18
2018-03-20T07:20:16.652Z,8.00
2018-03-20T07:22:44.186Z,2.85
2018-03-20T07:25:10.777Z,4.65
2018-03-20T07:27:37.384Z,4.00
2018-03-20T07:30:04.008Z,13.68
2018-03-20T07:32:30.600Z,8.27
2018-03-20T07:34:57.245Z,6.28
2018-03-20T07:37:23.836Z,8.32
2018-03-20T07:39:50.486Z,10.60
2018-03-20T07:42:17.018Z,6.50
2018-03-20T07:44:43.621Z,12.85
2018-03-20T07:47:10.231Z,11.75
2018-03-20T07:49:37.428Z,12.40
2018-03-20T07:52:04.036Z,5.70
2018-03-20T07:54:30.644Z,6.18
2018-03-20T07:56:57.231Z,9.15
2018-03-20T07:59:23.828Z,10.15
2018-03-20T08:01:50.428Z,7.07
2018-03-20T08:04:17.040Z,15.40
2018-03-20T08:06:44.471Z,3.30
2018-03-20T08:09:11.072Z,11.05
2018-03-20T08:11:38.497Z,6.57
2018-03-20T08:14:05.083Z,7.45
2018-03-20T08:16:31.689Z,3.67
2018-03-20T08:18:58.294Z,10.77
2018-03-20T08:21:24.878Z,2.72
2018-03-20T08:23:51.484Z,4.82
2018-03-20T08:26:18.077Z,19.37
2018-03-20T08:28:44.679Z,9.50
2018-03-20T08:31:11.268Z,3.87
2018-03-20T08:33:37.862Z,6.10
2018-03-20T08:36:04.468Z,2.00
2018-03-20T08:38:31.058Z,10.90
2018-03-20T08:40:57.660Z,7.28
2018-03-20T08:43:24.264Z,12.13
2018-03-20T08:45:50.866Z,5.35
2018-03-20T08:48:17.486Z,3.12
2018-03-20T08:50:44.072Z,13.40
2018-03-20T08:53:10.673Z,7.22
2018-03-20T08:55:37.273Z,6.60
2018-03-20T08:58:03.859Z,5.15
2018-03-20T09:00:30.542Z,2.62
2018-03-20T09:02:57.128Z,8.75
2018-03-20T09:05:23.729Z,5.45
2018-03-20T09:07:50.325Z,4.60
2018-03-20T09:10:16.938Z,14.13
2018-03-20T09:12:43.542Z,8.13
2018-03-20T09:15:10.152Z,5.53
2018-03-20T09:17:36.863Z,4.93
2018-03-20T09:20:03.468Z,4.25
2018-03-20T09:22:30.058Z,7.32
2018-03-20T09:24:57.254Z,4.35
2018-03-20T09:27:23.847Z,3.50
2018-03-20T09:29:50.449Z,6.43
2018-03-20T09:32:17.076Z,4.15
2018-03-20T09:34:43.670Z,5.53
2018-03-20T09:37:10.254Z,2.62
2018-03-20T09:39:37.869Z,4.10
2018-03-20T09:42:04.454Z,5.87
2018-03-20T09:44:31.037Z,3.03
2018-03-20T09:46:57.635Z,4.93
2018-03-20T09:49:24.253Z,2.85
2018-03-20T09:51:50.861Z,5.85
2018-03-20T09:54:18.070Z,6.05
2018-03-20T09:56:44.658Z,27.60
2018-03-20T09:59:11.267Z,9.85
2018-03-20T10:01:37.864Z,7.20
2018-03-20T10:04:04.506Z,7.35
2018-03-20T10:06:31.064Z,10.30
2018-03-20T10:08:57.660Z,12.05
2018-03-20T10:11:24.246Z,6.90
2018-03-20T10:13:50.830Z,5.40
2018-03-20T10:16:17.447Z,19.10
2018-03-20T10:18:44.055Z,14.75
2018-03-20T10:21:10.660Z,13.02
2018-03-20T10:23:37.267Z,12.98
2018-03-20T10:26:03.878Z,9.05
2018-03-20T10:28:30.486Z,12.90
2018-03-20T10:30:57.100Z,11.90
2018-03-20T10:33:23.692Z,8.13
2018-03-20T10:35:50.310Z,9.55
2018-03-20T10:38:17.401Z,11.73
2018-03-20T10:40:44.005Z,18.60
2018-03-20T10:43:10.611Z,13.80
2018-03-20T10:45:37.224Z,11.05
2018-03-20T10:48:03.832Z,9.63
2018-03-20T10:50:30.425Z,14.98
2018-03-20T10:52:57.522Z,11.55
2018-03-20T10:55:24.137Z,10.07
2018-03-20T10:57:50.750Z,15.07
2018-03-20T11:00:17.339Z,11.77
2018-03-20T11:02:49.805Z,22.08
2018-03-20T11:05:16.459Z,18.23
2018-03-20T11:07:43.682Z,13.40
2018-03-20T11:10:10.293Z,18.60
2018-03-20T11:12:37.021Z,19.27
2018-03-20T11:15:03.679Z,14.00
2018-03-20T11:17:30.339Z,16.05
2018-03-20T11:19:57.457Z,17.83
2018-03-20T11:22:24.042Z,7.40
2018-03-20T11:24:50.674Z,6.68
2018-03-20T11:27:17.274Z,7.18
2018-03-20T11:29:43.857Z,7.30
2018-03-20T11:32:10.465Z,13.07
2018-03-20T11:34:37.077Z,12.13
2018-03-20T11:37:03.693Z,11.80
2018-03-20T11:39:30.313Z,6.00
2018-03-20T11:41:57.807Z,9.70
2018-03-20T11:44:24.420Z,13.00
2018-03-20T11:46:51.019Z,15.07
2018-03-20T11:49:18.453Z,19.15
2018-03-20T11:51:45.048Z,8.48
2018-03-20T11:54:11.658Z,12.30
2018-03-20T11:56:38.253Z,16.62
2018-03-20T11:59:04.861Z,18.58
2018-03-20T12:01:32.442Z,14.80
2018-03-20T12:03:59.052Z,20.70
2018-03-20T12:06:25.661Z,18.10
2018-03-20T12:08:52.257Z,17.42
2018-03-20T12:11:18.866Z,16.08
2018-03-20T12:13:45.454Z,17.77
2018-03-20T12:16:12.062Z,12.00
2018-03-20T12:18:38.684Z,14.13
2018-03-20T12:21:05.276Z,10.40
2018-03-20T12:23:31.880Z,17.48
2018-03-20T12:25:58.488Z,10.60
2018-03-20T12:28:25.103Z,24.45
2018-03-20T12:30:51.694Z,14.13
2018-03-20T12:33:18.304Z,14.85
2018-03-20T12:35:44.908Z,14.15
2018-03-20T12:38:11.584Z,16.48
2018-03-20T12:40:38.160Z,19.65
2018-03-20T12:43:05.446Z,19.25
2018-03-20T12:45:32.064Z,19.05
2018-03-20T12:47:58.692Z,19.52
2018-03-20T12:50:25.300Z,40.47
2018-03-20T12:52:52.835Z,26.62
2018-03-20T12:55:19.444Z,24.37
2018-03-20T12:57:46.093Z,15.15
2018-03-20T13:00:12.675Z,16.48
2018-03-20T13:02:39.272Z,10.68
2018-03-20T13:05:05.885Z,11.57
2018-03-20T13:07:32.491Z,18.05
2018-03-20T13:09:59.078Z,14.45
2018-03-20T13:12:25.678Z,22.52
2018-03-20T13:14:52.274Z,9.35
2018-03-20T13:17:18.878Z,13.10
2018-03-20T13:19:45.482Z,14.38
2018-03-20T13:22:12.065Z,18.92
2018-03-20T13:24:38.671Z,13.13
2018-03-20T13:27:05.274Z,20.05
2018-03-20T13:29:31.888Z,15.68
2018-03-20T13:31:58.512Z,14.65
2018-03-20T13:34:25.960Z,19.48
2018-03-20T13:36:52.584Z,15.50
2018-03-20T13:39:19.194Z,25.02
2018-03-20T13:41:45.807Z,12.55
2018-03-20T13:44:12.426Z,17.65
2018-03-20T13:46:39.037Z,14.32
2018-03-20T13:49:05.668Z,13.27
2018-03-20T13:51:32.242Z,14.35
2018-03-20T13:53:58.842Z,11.73
2018-03-20T13:56:25.500Z,16.42
2018-03-20T13:58:52.097Z,18.77
2018-03-20T14:01:18.695Z,14.45
2018-03-20T14:03:45.288Z,12.45
2018-03-20T14:06:11.918Z,19.08
2018-03-20T14:08:38.482Z,13.80
2018-03-20T14:11:05.070Z,21.92
2018-03-20T14:13:31.700Z,20.15
2018-03-20T14:15:58.313Z,13.98
2018-03-20T14:18:24.923Z,19.33
2018-03-20T14:20:52.036Z,18.85
2018-03-20T14:23:18.677Z,20.83
2018-03-20T14:25:45.242Z,11.65
2018-03-20T14:28:12.864Z,7.93
2018-03-20T14:30:39.484Z,14.43
2018-03-20T14:33:06.996Z,19.42
2018-03-20T14:35:34.234Z,19.73
2018-03-20T14:38:01.279Z,13.60
2018-03-20T14:42:59.266Z,12.88
2018-03-20T14:45:27.027Z,13.30
2018-03-20T14:47:53.873Z,12.52
2018-03-20T14:50:20.515Z,17.35
2018-03-20T14:52:47.129Z,23.52
2018-03-20T14:55:13.718Z,30.17
2018-03-20T14:57:40.319Z,20.35
2018-03-20T15:00:06.928Z,29.67
2018-03-20T15:02:33.541Z,19.80
2018-03-20T15:05:00.421Z,21.25
2018-03-20T15:07:27.080Z,23.92
2018-03-20T15:09:53.684Z,42.70
2018-03-20T15:12:20.295Z,22.02
2018-03-20T15:14:47.911Z,23.15
2018-03-20T15:17:15.976Z,22.90
2018-03-20T15:19:42.569Z,24.90
2018-03-20T15:22:09.221Z,24.50
2018-03-20T15:24:35.815Z,24.77
2018-03-20T15:27:02.515Z,12.98
2018-03-20T15:29:29.114Z,23.10
2018-03-20T15:31:55.816Z,19.75
2018-03-20T15:34:22.683Z,23.85
2018-03-20T15:36:49.288Z,19.85
2018-03-20T15:39:16.322Z,15.77
2018-03-20T15:41:42.950Z,20.98
2018-03-20T15:44:09.551Z,27.52
2018-03-20T15:46:36.146Z,25.25
2018-03-20T15:49:02.809Z,17.92
2018-03-20T15:51:29.420Z,14.38
2018-03-20T15:53:56.023Z,22.62
2018-03-20T15:56:22.621Z,27.10
2018-03-20T15:58:49.228Z,19.02
2018-03-20T16:01:15.839Z,19.10
2018-03-20T16:03:42.485Z,27.85
2018-03-20T16:06:09.048Z,29.17
2018-03-20T16:08:35.642Z,23.00
2018-03-20T16:11:02.250Z,24.10
2018-03-20T16:13:28.856Z,29.05
2018-03-20T16:15:55.449Z,17.77
2018-03-20T16:18:22.066Z,15.10
2018-03-20T16:20:48.674Z,28.77
2018-03-20T16:23:15.372Z,24.10
2018-03-20T16:25:41.984Z,28.33
2018-03-20T16:28:08.579Z,29.23
2018-03-20T16:30:35.197Z,32.35
2018-03-20T16:33:01.790Z,21.92
2018-03-20T16:35:28.404Z,30.05
2018-03-20T16:37:57.094Z,32.65
2018-03-20T16:40:23.712Z,31.65
2018-03-20T16:42:51.660Z,34.88
2018-03-20T16:45:19.474Z,28.12
2018-03-20T16:47:46.290Z,34.58
2018-03-20T16:50:12.907Z,35.78
2018-03-20T16:52:39.563Z,25.20
2018-03-20T16:55:06.175Z,35.08
2018-03-20T16:57:32.766Z,35.38
2018-03-20T16:59:59.366Z,33.25
2018-03-20T17:02:25.973Z,46.63
2018-03-20T17:04:52.620Z,29.45
2018-03-20T17:07:24.102Z,22.65
2018-03-20T17:09:50.736Z,29.02
2018-03-20T17:12:18.134Z,26.35
2018-03-20T17:14:44.734Z,32.13
2018-03-20T17:17:11.367Z,30.98
2018-03-20T17:19:37.988Z,36.88
2018-03-20T17:22:04.603Z,36.42
2018-03-20T17:24:31.223Z,28.92
2018-03-20T17:26:57.824Z,43.25
2018-03-20T17:29:24.524Z,33.67
2018-03-20T17:31:51.133Z,46.90
2018-03-20T17:34:17.838Z,44.65
2018-03-20T17:36:44.435Z,50.00
2018-03-20T17:39:11.048Z,56.80
2018-03-20T17:41:37.643Z,40.42
2018-03-20T17:44:04.293Z,39.47
2018-03-20T17:46:30.901Z,49.47
2018-03-20T17:48:58.238Z,40.20
2018-03-20T17:51:24.853Z,61.63
2018-03-20T17:53:51.464Z,54.40
2018-03-20T17:56:18.060Z,42.50
2018-03-20T17:58:44.654Z,38.15
2018-03-20T18:01:11.412Z,41.15
2018-03-20T18:03:38.006Z,44.30
2018-03-20T18:06:04.609Z,44.33
2018-03-20T18:08:31.212Z,44.10
2018-03-20T18:10:57.821Z,64.37
2018-03-20T18:13:24.430Z,43.50
2018-03-20T18:15:51.399Z,41.95
2018-03-20T18:18:17.986Z,61.25
2018-03-20T18:20:44.606Z,44.80
2018-03-20T18:23:11.198Z,43.58
2018-03-20T18:25:37.809Z,56.42
2018-03-20T18:28:04.423Z,53.10
2018-03-20T18:30:31.718Z,67.35
2018-03-20T18:32:58.329Z,72.90
2018-03-20T18:35:24.927Z,44.70
2018-03-20T18:37:51.526Z,65.55
2018-03-20T18:40:18.136Z,63.55
2018-03-20T18:42:45.590Z,55.20
2018-03-20T18:45:12.199Z,70.95
2018-03-20T18:47:38.827Z,65.10
2018-03-20T18:50:05.427Z,68.05
2018-03-20T18:52:32.034Z,63.70
2018-03-20T18:54:58.655Z,64.03
2018-03-20T18:57:25.277Z,85.25
2018-03-20T18:59:51.894Z,59.63
2018-03-20T19:02:18.500Z,66.00
2018-03-20T19:04:45.099Z,55.00
2018-03-20T19:07:11.699Z,52.17
2018-03-20T19:09:38.825Z,68.60
2018-03-20T19:12:06.857Z,65.25
2018-03-20T19:14:33.461Z,58.80
2018-03-20T19:17:00.096Z,68.32
2018-03-20T19:19:26.704Z,60.65
2018-03-20T19:21:54.231Z,112.18
2018-03-20T19:24:21.223Z,68.03
2018-03-20T19:26:47.806Z,78.28
2018-03-20T19:29:14.414Z,68.37
2018-03-20T19:31:41.047Z,60.83
2018-03-20T19:34:08.840Z,51.88
2018-03-20T19:36:35.440Z,60.42
2018-03-20T19:39:02.054Z,48.95
2018-03-20T19:41:28.673Z,61.22
2018-03-20T19:43:55.295Z,44.75
2018-03-20T19:46:21.909Z,45.67
2018-03-20T19:48:48.533Z,52.95
2018-03-20T19:51:15.170Z,82.20
2018-03-20T19:53:41.776Z,66.95
2018-03-20T19:56:08.397Z,92.15
2018-03-20T19:58:35.027Z,71.72
2018-03-20T20:01:01.626Z,57.30
2018-03-20T20:03:28.240Z,84.00
2018-03-20T20:05:54.865Z,69.00
2018-03-20T20:08:21.478Z,57.28
2018-03-20T20:10:48.425Z,71.12
2018-03-20T20:13:15.003Z,67.70
2018-03-20T20:15:41.608Z,93.57
2018-03-20T20:18:08.203Z,76.05
2018-03-20T20:20:34.840Z,78.85
2018-03-20T20:23:01.498Z,66.00
2018-03-20T20:25:28.090Z,78.07
2018-03-20T20:27:54.707Z,58.67
2018-03-20T20:30:21.296Z,70.12
2018-03-20T20:32:47.890Z,66.80
2018-03-20T20:35:14.496Z,51.50
2018-03-20T20:37:41.098Z,48.87
2018-03-20T20:40:07.711Z,76.10
2018-03-20T20:42:34.323Z,76.20
2018-03-20T20:45:00.929Z,79.50
2018-03-20T20:47:27.529Z,71.20
2018-03-20T20:49:54.758Z,86.53
2018-03-20T20:52:21.362Z,101.85
2018-03-20T20:54:47.967Z,87.10
2018-03-20T20:57:15.452Z,85.97
2018-03-20T20:59:42.064Z,71.57
2018-03-20T21:02:08.673Z,65.32
2018-03-20T21:04:36.455Z,71.75
2018-03-20T21:07:03.064Z,84.20
2018-03-20T21:09:30.618Z,85.10
2018-03-20T21:11:57.228Z,98.05
2018-03-20T21:14:24.200Z,83.18
2018-03-20T21:16:50.800Z,72.82
2018-03-20T21:19:17.418Z,74.25
2018-03-20T21:21:44.018Z,71.82
2018-03-20T21:24:10.637Z,79.93
2018-03-20T21:26:38.063Z,80.72
2018-03-20T21:29:04.672Z,111.97
2018-03-20T21:31:31.284Z,77.85
2018-03-20T21:33:57.913Z,89.72
2018-03-20T21:36:25.273Z,85.55
2018-03-20T21:38:51.867Z,91.43
2018-03-20T21:41:18.484Z,110.72
2018-03-20T21:43:45.084Z,87.35
2018-03-20T21:46:11.714Z,105.05
2018-03-20T21:48:38.323Z,92.25
2018-03-20T21:51:04.927Z,104.07
2018-03-20T21:53:31.563Z,105.00
2018-03-20T21:55:58.177Z,147.45
2018-03-20T21:58:24.814Z,157.88
2018-03-20T22:00:51.449Z,118.43
2018-03-20T22:03:18.055Z,140.60
2018-03-20T22:05:45.423Z,131.93
2018-03-20T22:08:12.038Z,135.27
2018-03-20T22:10:39.365Z,150.30
2018-03-20T22:13:05.985Z,124.90
2018-03-20T22:15:32.618Z,144.23
2018-03-20T22:17:59.222Z,143.98
2018-03-20T22:20:26.482Z,120.20
2018-03-20T22:22:53.113Z,123.43
2018-03-20T22:25:19.724Z,130.85
2018-03-20T22:27:46.344Z,144.37
2018-03-20T22:30:12.926Z,133.18
2018-03-20T22:32:39.532Z,142.07
2018-03-20T22:35:06.134Z,139.93
2018-03-20T22:37:32.753Z,127.72
2018-03-20T22:39:59.370Z,105.90
2018-03-20T22:42:25.993Z,102.03
2018-03-20T22:44:52.642Z,126.85
2018-03-20T22:47:19.429Z,142.77
2018-03-20T22:49:46.108Z,123.38
2018-03-20T22:52:13.567Z,147.57
2018-03-20T22:54:40.175Z,99.97
2018-03-20T22:57:06.792Z,111.75
2018-03-20T22:59:33.394Z,116.37
2018-03-20T23:02:00.020Z,121.82
2018-03-20T23:04:26.625Z,131.63
2018-03-20T23:06:53.251Z,141.02
2018-03-20T23:09:19.849Z,124.05
2018-03-20T23:11:46.459Z,131.30
2018-03-20T23:14:13.054Z,135.10
2018-03-20T23:16:40.221Z,173.55
2018-03-20T23:19:06.837Z,184.25
2018-03-20T23:21:33.437Z,161.25
2018-03-20T23:24:00.074Z,152.95
2018-03-20T23:26:26.687Z,159.07
2018-03-20T23:28:53.290Z,174.85
2018-03-20T23:31:19.908Z,142.27
2018-03-20T23:33:46.515Z,162.73
2018-03-20T23:36:13.120Z,154.00
2018-03-20T23:38:39.737Z,176.68
2018-03-20T23:41:06.347Z,172.25
2018-03-20T23:43:33.845Z,128.40
2018-03-20T23:46:00.461Z,129.27
2018-03-20T23:48:27.064Z,110.15
2018-03-20T23:50:53.687Z,123.38
2018-03-20T23:53:20.290Z,111.03
2018-03-20T23:55:46.935Z,160.37
2018-03-20T23:58:13.556Z,169.43
